Time;durP1;ratioP1;P1;durP2;ratioP2;P2;SDS_P1;SDS_P2;PMS_P1;PMS_P2;Temp;Humidity;BMP_temperature;BMP_pressure;BME280_temperature;BME280_humidity;BME280_pressure;Samples;Min_cycle;Max_cycle;Signal;HPM_P1;HPM_P2
2022/04/23 00:01:42;;;;;;;8.02;6.55;;;12.40;99.90;;;;;;5094533;28;20202;-58
2022/04/23 00:04:09;;;;;;;9.00;6.55;;;12.40;99.90;;;;;;5094214;28;20189;-58
2022/04/23 00:06:35;;;;;;;7.18;6.25;;;12.30;99.90;;;;;;5094564;28;20270;-58
2022/04/23 00:09:01;;;;;;;8.48;6.65;;;12.30;99.90;;;;;;5094630;28;20209;-58
2022/04/23 00:11:27;;;;;;;8.23;6.47;;;12.20;99.90;;;;;;5094515;28;20651;-58
2022/04/23 00:13:55;;;;;;;9.50;6.55;;;12.20;99.90;;;;;;5094524;28;20170;-58
2022/04/23 00:16:22;;;;;;;9.20;7.00;;;12.20;99.90;;;;;;5094348;28;20178;-58
2022/04/23 00:18:47;;;;;;;7.00;5.95;;;12.20;99.90;;;;;;5094252;28;20205;-59
2022/04/23 00:21:13;;;;;;;8.88;6.82;;;12.20;99.90;;;;;;5094453;28;20621;-58
2022/04/23 00:23:40;;;;;;;7.13;5.97;;;12.20;99.90;;;;;;5094117;28;20182;-58
2022/04/23 00:26:06;;;;;;;6.65;5.85;;;12.20;99.90;;;;;;5094251;28;20196;-58
2022/04/23 00:28:32;;;;;;;8.02;6.13;;;12.20;99.90;;;;;;5094187;28;20529;-59
2022/04/23 00:30:57;;;;;;;7.80;6.05;;;12.10;99.90;;;;;;5093733;28;20177;-58
2022/04/23 00:33:23;;;;;;;7.38;6.55;;;12.10;99.90;;;;;;5094323;28;20538;-58
2022/04/23 00:35:50;;;;;;;8.52;6.65;;;12.20;99.90;;;;;;5094337;28;20189;-58
2022/04/23 00:38:16;;;;;;;8.57;6.40;;;12.20;99.90;;;;;;5076281;28;20227;-58
2022/04/23 00:40:43;;;;;;;7.45;6.63;;;12.20;99.90;;;;;;5094468;28;20166;-59
2022/04/23 00:43:36;;;;;;;9.15;7.00;;;12.20;99.90;;;;;;5093880;28;20269;-58
2022/04/23 00:46:03;;;;;;;7.78;6.70;;;12.20;99.90;;;;;;5094035;28;20173;-58
2022/04/23 00:48:29;;;;;;;8.35;6.97;;;12.20;99.90;;;;;;5093971;28;20264;-58
2022/04/23 00:51:00;;;;;;;7.93;6.90;;;12.30;99.90;;;;;;5076152;28;20181;-58
2022/04/23 00:53:27;;;;;;;9.07;7.20;;;12.30;99.90;;;;;;5075842;28;20177;-58
2022/04/23 00:55:53;;;;;;;9.55;6.82;;;12.30;99.90;;;;;;5093730;28;20170;-58
2022/04/23 00:58:19;;;;;;;8.57;7.32;;;12.20;99.90;;;;;;5058763;28;20178;-60
2022/04/23 01:00:46;;;;;;;8.88;7.25;;;12.10;99.90;;;;;;5093753;28;20166;-58
2022/04/23 01:03:12;;;;;;;9.55;7.50;;;12.10;99.90;;;;;;5093290;28;20200;-57
2022/04/23 01:05:44;;;;;;;10.63;7.80;;;12.20;99.90;;;;;;5093655;28;20200;-58
2022/04/23 01:08:12;;;;;;;8.65;7.65;;;12.20;99.90;;;;;;5075281;28;20299;-58
2022/04/23 01:10:38;;;;;;;9.10;7.38;;;12.10;99.90;;;;;;5093452;28;20166;-58
2022/04/23 01:13:03;;;;;;;8.15;7.00;;;12.10;99.90;;;;;;5093326;28;20170;-58
2022/04/23 01:15:29;;;;;;;8.85;7.25;;;12.10;99.90;;;;;;5093536;28;20575;-58
2022/04/23 01:17:55;;;;;;;9.38;7.80;;;12.20;99.90;;;;;;5093248;28;20192;-58
2022/04/23 01:20:20;;;;;;;10.40;7.65;;;12.20;99.90;;;;;;5093354;28;20700;-58
2022/04/23 01:22:46;;;;;;;8.82;7.55;;;12.20;99.90;;;;;;5093415;28;20172;-58
2022/04/23 01:25:13;;;;;;;9.55;7.78;;;12.20;99.90;;;;;;5075172;28;20174;-58
2022/04/23 01:27:40;;;;;;;10.68;7.75;;;12.20;99.90;;;;;;5093080;28;20703;-58
2022/04/23 01:30:08;;;;;;;10.93;8.43;;;12.20;99.90;;;;;;5093661;28;20170;-58
2022/04/23 01:32:34;;;;;;;8.80;7.13;;;12.20;99.90;;;;;;5093141;28;20196;-58
2022/04/23 01:35:00;;;;;;;10.20;7.93;;;12.20;99.90;;;;;;5093289;28;20612;-58
2022/04/23 01:37:25;;;;;;;9.02;8.05;;;12.20;99.90;;;;;;5093110;28;20205;-58
2022/04/23 01:39:51;;;;;;;8.75;7.55;;;12.20;99.90;;;;;;5093046;28;20170;-58
2022/04/23 01:42:19;;;;;;;9.48;7.75;;;12.20;99.90;;;;;;5077366;28;20177;-58
2022/04/23 01:44:46;;;;;;;10.02;8.07;;;12.10;99.90;;;;;;5097458;28;20178;-58
2022/04/23 01:47:12;;;;;;;10.50;8.52;;;12.20;99.90;;;;;;5097255;28;20211;-58
2022/04/23 01:49:38;;;;;;;11.50;8.65;;;12.10;99.90;;;;;;5097164;28;20651;-59
2022/04/23 01:52:04;;;;;;;9.20;7.97;;;12.20;99.90;;;;;;5097061;28;20174;-58
2022/04/23 01:54:30;;;;;;;10.23;8.38;;;12.20;99.90;;;;;;5096998;28;20173;-58
2022/04/23 01:56:59;;;;;;;10.57;8.48;;;12.10;99.90;;;;;;5097250;28;20497;-58
2022/04/23 01:59:25;;;;;;;9.27;8.00;;;12.10;99.90;;;;;;5097188;28;20192;-58
2022/04/23 02:01:51;;;;;;;10.55;7.95;;;12.10;99.90;;;;;;5096966;28;20174;-58
2022/04/23 02:04:17;;;;;;;10.68;8.15;;;12.10;99.90;;;;;;5096682;28;20186;-59
2022/04/23 02:06:43;;;;;;;10.07;8.07;;;12.10;99.90;;;;;;5096823;28;20201;-58
2022/04/23 02:09:09;;;;;;;9.98;7.85;;;12.10;99.90;;;;;;5096770;28;20166;-58
2022/04/23 02:11:35;;;;;;;9.95;8.25;;;12.10;99.90;;;;;;5078732;28;20568;-59
2022/04/23 02:14:02;;;;;;;9.38;7.90;;;12.10;99.90;;;;;;5096681;28;20266;-59
2022/04/23 02:16:28;;;;;;;12.82;9.50;;;12.00;99.90;;;;;;5096705;28;20186;-60
2022/04/23 02:18:54;;;;;;;9.60;8.32;;;12.00;99.90;;;;;;5078509;28;20525;-58
2022/04/23 02:21:20;;;;;;;10.55;8.40;;;12.00;99.90;;;;;;5096559;28;20181;-58
2022/04/23 02:23:46;;;;;;;11.13;7.78;;;12.00;99.90;;;;;;5096513;28;20170;-59
2022/04/23 02:26:12;;;;;;;11.15;8.65;;;12.00;99.90;;;;;;5096608;28;20197;-58
2022/04/23 02:28:38;;;;;;;10.32;9.05;;;12.10;99.90;;;;;;5096543;28;20178;-58
2022/04/23 02:31:07;;;;;;;10.60;8.85;;;12.10;99.90;;;;;;5096190;28;20676;-58
2022/04/23 02:33:34;;;;;;;12.35;8.85;;;12.00;99.90;;;;;;5096420;28;20533;-58
2022/04/23 02:36:00;;;;;;;11.68;8.32;;;12.10;99.90;;;;;;5096344;28;20644;-58
2022/04/23 02:38:25;;;;;;;9.38;8.38;;;12.00;99.90;;;;;;5096157;28;20181;-59
2022/04/23 02:40:51;;;;;;;10.85;8.63;;;12.00;99.90;;;;;;5078344;28;20170;-58
2022/04/23 02:43:17;;;;;;;9.93;8.45;;;12.00;99.90;;;;;;5096605;28;20664;-59
2022/04/23 02:45:42;;;;;;;10.73;9.13;;;12.00;99.90;;;;;;5061487;28;20185;-59
2022/04/23 02:48:10;;;;;;;11.13;8.73;;;12.00;99.90;;;;;;5096063;28;20198;-60
2022/04/23 02:50:39;;;;;;;11.50;8.70;;;12.10;99.90;;;;;;5096018;28;20708;-59
2022/04/23 02:53:06;;;;;;;11.50;8.93;;;12.10;99.90;;;;;;5096695;28;20186;-59
2022/04/23 02:55:33;;;;;;;10.80;8.32;;;12.00;99.90;;;;;;5078540;28;20514;-59
2022/04/23 02:58:05;;;;;;;11.32;9.13;;;12.00;99.90;;;;;;5096297;28;20204;-59
2022/04/23 03:00:31;;;;;;;11.38;8.85;;;12.00;99.90;;;;;;5095878;28;20166;-59
2022/04/23 03:02:57;;;;;;;11.63;9.27;;;11.90;99.90;;;;;;5078042;28;20670;-59
2022/04/23 03:05:22;;;;;;;11.57;9.13;;;11.90;99.90;;;;;;5095553;28;20222;-59
2022/04/23 03:07:48;;;;;;;12.32;8.93;;;11.90;99.90;;;;;;5095896;28;20562;-59
2022/04/23 03:10:16;;;;;;;11.35;9.45;;;11.90;99.90;;;;;;5096140;28;20251;-59
2022/04/23 03:12:42;;;;;;;12.07;9.20;;;12.00;99.90;;;;;;5095463;28;20162;-59
2022/04/23 03:15:10;;;;;;;11.93;9.48;;;11.90;99.90;;;;;;5095771;28;20219;-59
2022/04/23 03:17:36;;;;;;;12.82;9.13;;;11.90;99.90;;;;;;5095504;28;20174;-59
2022/04/23 03:20:04;;;;;;;11.18;9.18;;;11.90;99.90;;;;;;5095411;28;20241;-59
2022/04/23 03:22:29;;;;;;;12.70;10.10;;;11.80;99.90;;;;;;5095762;28;20181;-59
2022/04/23 03:24:55;;;;;;;10.80;9.52;;;11.90;99.90;;;;;;5095662;28;20170;-59
2022/04/23 03:27:21;;;;;;;10.57;9.02;;;11.90;99.90;;;;;;5095391;28;20217;-59
2022/04/23 03:29:47;;;;;;;11.30;9.15;;;11.90;99.90;;;;;;5095364;28;20178;-58
2022/04/23 03:32:13;;;;;;;11.65;9.82;;;11.80;99.90;;;;;;5095102;28;20201;-59
2022/04/23 03:34:39;;;;;;;11.98;9.10;;;11.80;99.90;;;;;;5095092;28;20174;-59
2022/04/23 03:37:05;;;;;;;11.73;8.95;;;11.80;99.90;;;;;;5095337;28;20185;-59
2022/04/23 03:39:35;;;;;;;12.02;9.30;;;11.70;99.90;;;;;;5095332;28;20525;-59
2022/04/23 03:42:01;;;;;;;10.75;8.93;;;11.70;99.90;;;;;;5095402;28;20174;-59
2022/04/23 03:44:28;;;;;;;11.35;9.20;;;11.80;99.90;;;;;;5095040;28;20178;-59
2022/04/23 03:46:54;;;;;;;11.50;9.50;;;11.80;99.90;;;;;;5094812;28;20216;-59
2022/04/23 03:49:22;;;;;;;11.98;9.18;;;11.80;99.90;;;;;;5094803;28;20166;-59
2022/04/23 03:51:47;;;;;;;12.13;9.40;;;11.70;99.90;;;;;;5095118;28;20182;-59
2022/04/23 03:54:14;;;;;;;12.13;9.70;;;11.70;99.90;;;;;;5076701;28;20518;-59
2022/04/23 03:56:40;;;;;;;11.98;9.52;;;11.80;99.90;;;;;;5094845;28;20185;-59
2022/04/23 03:59:07;;;;;;;11.55;9.68;;;11.70;99.90;;;;;;5094774;28;20174;-59
2022/04/23 04:01:33;;;;;;;12.10;9.55;;;11.70;99.90;;;;;;5094494;28;20178;-59
2022/04/23 04:04:00;;;;;;;11.65;9.88;;;11.80;99.90;;;;;;5094108;28;20268;-59
2022/04/23 04:06:26;;;;;;;11.38;9.00;;;11.70;99.90;;;;;;5094633;28;20288;-60
2022/04/23 04:08:53;;;;;;;11.27;9.45;;;11.60;99.90;;;;;;5094632;28;20177;-60
2022/04/23 04:11:19;;;;;;;12.50;10.02;;;11.60;99.90;;;;;;5094547;28;20174;-59
2022/04/23 04:13:45;;;;;;;11.07;9.00;;;11.60;99.90;;;;;;5094464;28;20178;-59
2022/04/23 04:16:12;;;;;;;12.02;9.50;;;11.60;99.90;;;;;;5094344;28;20600;-59
2022/04/23 04:18:38;;;;;;;10.57;9.43;;;11.60;99.90;;;;;;5094478;28;20170;-59
2022/04/23 04:21:04;;;;;;;12.40;9.63;;;11.70;99.90;;;;;;5094458;28;20209;-59
2022/04/23 04:23:30;;;;;;;12.05;9.88;;;11.60;99.90;;;;;;5094311;28;20211;-59
2022/04/23 04:25:56;;;;;;;10.80;9.38;;;11.60;99.90;;;;;;5094241;28;20178;-59
2022/04/23 04:28:22;;;;;;;12.23;9.43;;;11.50;99.90;;;;;;5094062;28;20214;-59
2022/04/23 04:33:32;;;;;;;11.43;9.55;;;11.60;99.90;;;;;;5094490;28;20188;-59
2022/04/23 04:35:57;;;;;;;11.35;9.00;;;11.50;99.90;;;;;;5094165;28;20174;-59
2022/04/23 04:38:23;;;;;;;12.43;9.18;;;11.50;99.90;;;;;;5094051;28;20174;-59
2022/04/23 04:40:49;;;;;;;11.38;9.25;;;11.60;99.90;;;;;;5093888;28;20644;-59
2022/04/23 04:43:15;;;;;;;12.50;10.10;;;11.60;99.90;;;;;;5093807;28;20208;-59
2022/04/23 04:45:41;;;;;;;11.75;9.77;;;11.60;99.90;;;;;;5093759;28;20214;-59
2022/04/23 04:48:07;;;;;;;12.27;9.80;;;11.50;99.90;;;;;;5075706;28;20213;-59
2022/04/23 04:50:32;;;;;;;12.10;9.52;;;11.50;99.90;;;;;;5075754;28;20174;-59
2022/04/23 04:52:59;;;;;;;13.45;10.55;;;11.50;99.90;;;;;;5075733;28;20177;-59
2022/04/23 04:55:24;;;;;;;11.50;9.98;;;11.50;99.90;;;;;;5093742;28;20177;-59
2022/04/23 04:57:50;;;;;;;11.55;9.43;;;11.50;99.90;;;;;;5093655;28;20615;-59
2022/04/23 05:00:18;;;;;;;12.27;9.57;;;11.50;99.90;;;;;;5093787;28;20664;-60
2022/04/23 05:02:44;;;;;;;11.90;9.82;;;11.50;99.90;;;;;;5093639;28;20181;-60
2022/04/23 05:05:10;;;;;;;11.05;9.32;;;11.50;99.90;;;;;;5093717;28;20255;-60
2022/04/23 05:07:35;;;;;;;11.95;9.38;;;11.50;99.90;;;;;;5093951;28;20194;-60
2022/04/23 05:10:02;;;;;;;12.02;9.35;;;11.60;99.90;;;;;;5094127;28;20178;-61
2022/04/23 05:12:27;;;;;;;14.52;10.00;;;11.50;99.90;;;;;;5075218;28;20174;-60
2022/04/23 05:14:53;;;;;;;12.55;10.15;;;11.50;99.90;;;;;;5093609;28;20534;-60
2022/04/23 05:17:19;;;;;;;12.82;9.70;;;11.40;99.90;;;;;;5092570;28;20178;-60
2022/04/23 05:19:44;;;;;;;12.93;9.77;;;11.50;99.90;;;;;;5093367;28;20530;-60
2022/04/23 05:22:10;;;;;;;12.02;9.93;;;11.50;99.90;;;;;;5093508;28;20663;-61
2022/04/23 05:24:35;;;;;;;15.63;11.30;;;11.50;99.90;;;;;;5093354;28;20588;-60
2022/04/23 05:27:01;;;;;;;11.85;9.27;;;11.50;99.90;;;;;;5093110;28;20225;-60
2022/04/23 05:29:27;;;;;;;13.07;9.73;;;11.50;99.90;;;;;;5092918;28;20686;-60
2022/04/23 05:31:52;;;;;;;13.45;10.35;;;11.50;99.90;;;;;;5058324;28;20205;-60
2022/04/23 05:34:18;;;;;;;12.80;10.25;;;11.50;99.90;;;;;;5093196;28;20178;-60
2022/04/23 05:36:44;;;;;;;11.98;9.98;;;11.50;99.90;;;;;;5075051;28;20190;-60
2022/04/23 05:39:10;;;;;;;13.05;9.98;;;11.60;99.90;;;;;;5093098;28;20166;-60
2022/04/23 05:41:36;;;;;;;13.30;10.18;;;11.60;99.90;;;;;;5092995;28;20174;-60
2022/04/23 05:44:02;;;;;;;13.07;9.70;;;11.60;99.90;;;;;;5074793;28;20178;-60
2022/04/23 05:46:28;;;;;;;12.63;9.20;;;11.70;99.90;;;;;;5093002;28;20754;-60
2022/04/23 05:48:55;;;;;;;14.07;10.15;;;11.60;99.90;;;;;;5093032;28;20665;-60
2022/04/23 05:51:20;;;;;;;11.68;9.30;;;11.70;99.90;;;;;;5093001;28;20173;-61
2022/04/23 05:53:46;;;;;;;13.00;10.18;;;11.60;99.90;;;;;;5093012;28;20178;-60
2022/04/23 05:56:12;;;;;;;14.25;9.73;;;11.70;99.90;;;;;;5092880;28;20177;-60
2022/04/23 05:58:37;;;;;;;12.15;9.90;;;11.80;99.90;;;;;;5093150;28;20170;-60
2022/04/23 06:01:04;;;;;;;12.32;9.90;;;11.80;99.90;;;;;;5092967;28;20170;-61
2022/04/23 06:03:30;;;;;;;12.30;9.52;;;11.90;99.90;;;;;;5092977;28;20238;-60
2022/04/23 06:05:56;;;;;;;14.10;10.57;;;11.90;99.90;;;;;;5092755;28;20170;-60
2022/04/23 06:08:22;;;;;;;13.25;9.55;;;12.00;99.90;;;;;;5092754;28;20210;-60
2022/04/23 06:10:47;;;;;;;13.55;10.65;;;12.10;99.90;;;;;;5092751;28;20181;-60
2022/04/23 06:13:13;;;;;;;12.48;9.43;;;12.20;99.90;;;;;;5092987;28;20567;-60
2022/04/23 06:15:39;;;;;;;14.55;10.55;;;12.40;99.90;;;;;;5090060;28;20263;-59
2022/04/23 06:18:05;;;;;;;13.27;10.25;;;12.40;99.90;;;;;;5092612;28;20266;-60
2022/04/23 06:20:31;;;;;;;13.57;9.82;;;12.60;99.90;;;;;;5092297;28;20633;-59
2022/04/23 06:22:56;;;;;;;12.32;10.02;;;12.80;99.90;;;;;;5074756;28;20223;-59
2022/04/23 06:25:22;;;;;;;12.27;10.38;;;12.90;99.90;;;;;;5074418;28;20181;-60
2022/04/23 06:27:50;;;;;;;12.23;9.43;;;12.90;99.90;;;;;;5075912;28;20214;-60
2022/04/23 06:30:16;;;;;;;12.35;9.57;;;13.00;99.90;;;;;;5096206;28;20178;-59
2022/04/23 06:32:42;;;;;;;11.38;8.98;;;13.10;99.90;;;;;;5096238;28;20216;-60
2022/04/23 06:35:08;;;;;;;11.82;9.30;;;12.90;99.90;;;;;;5096037;28;20170;-60
2022/04/23 06:37:54;;;;;;;11.27;9.35;;;12.80;99.90;;;;;;5096011;28;20189;-61
2022/04/23 06:40:19;;;;;;;12.65;9.32;;;12.90;99.90;;;;;;5090943;28;20187;-61
2022/04/23 06:42:45;;;;;;;12.73;9.27;;;12.90;99.90;;;;;;5096189;28;20228;-60
2022/04/23 06:45:11;;;;;;;11.88;9.68;;;13.00;99.90;;;;;;5077996;28;20525;-60
2022/04/23 06:47:37;;;;;;;11.68;8.88;;;13.20;99.90;;;;;;5095962;28;20225;-60
2022/04/23 06:50:04;;;;;;;14.15;9.45;;;13.10;99.90;;;;;;5095848;28;20216;-60
2022/04/23 06:52:29;;;;;;;11.95;9.63;;;13.10;99.90;;;;;;5077728;28;20170;-60
2022/04/23 06:54:55;;;;;;;12.18;9.95;;;13.20;99.90;;;;;;5095788;28;20174;-60
2022/04/23 06:57:24;;;;;;;11.75;9.27;;;13.30;99.90;;;;;;5096137;28;20182;-60
2022/04/23 06:59:51;;;;;;;13.13;9.57;;;13.40;99.90;;;;;;5077680;28;20629;-60
2022/04/23 07:02:18;;;;;;;12.40;9.60;;;13.60;99.90;;;;;;5095847;28;20182;-60
2022/04/23 07:04:44;;;;;;;12.23;9.77;;;13.40;99.90;;;;;;5096174;28;20252;-60
2022/04/23 07:07:10;;;;;;;12.70;9.55;;;13.30;99.90;;;;;;5094635;28;20210;-60
2022/04/23 07:09:39;;;;;;;11.10;9.45;;;13.50;99.90;;;;;;5095486;28;20174;-60
2022/04/23 07:12:05;;;;;;;11.30;9.40;;;13.50;99.90;;;;;;5095754;28;20171;-60
2022/04/23 07:14:32;;;;;;;11.95;9.23;;;13.60;99.90;;;;;;5095642;28;20189;-60
2022/04/23 07:16:58;;;;;;;13.25;8.85;;;13.50;99.90;;;;;;5095590;28;20186;-60
2022/04/23 07:19:24;;;;;;;12.73;8.93;;;13.50;99.90;;;;;;5095620;28;20174;-61
2022/04/23 07:21:49;;;;;;;11.38;8.95;;;13.60;99.90;;;;;;5096181;28;20177;-60
2022/04/23 07:24:16;;;;;;;12.15;9.77;;;13.70;99.90;;;;;;5095903;28;20669;-61
2022/04/23 07:26:42;;;;;;;11.80;9.15;;;13.80;99.90;;;;;;5095377;28;20210;-60
2022/04/23 07:29:10;;;;;;;10.68;8.98;;;13.90;99.90;;;;;;5095238;28;20177;-60
2022/04/23 07:31:37;;;;;;;13.30;9.48;;;13.90;99.90;;;;;;5095444;28;20185;-59
2022/04/23 07:39:32;;;;;;;12.10;9.55;;;14.40;99.90;;;;;;5094280;28;20181;-60
2022/04/23 07:41:58;;;;;;;12.65;9.40;;;14.40;99.90;;;;;;5095008;28;20219;-60
2022/04/23 07:44:24;;;;;;;14.20;9.65;;;14.30;99.90;;;;;;5094828;28;20174;-60
2022/04/23 07:46:50;;;;;;;11.95;9.30;;;14.50;99.90;;;;;;5076918;28;20221;-60
2022/04/23 07:49:16;;;;;;;11.23;8.93;;;14.60;99.90;;;;;;5094726;28;20170;-60
2022/04/23 07:51:43;;;;;;;11.38;9.02;;;14.40;99.90;;;;;;5095063;28;20178;-61
2022/04/23 07:54:09;;;;;;;12.10;9.38;;;14.50;99.90;;;;;;5095182;28;20178;-61
2022/04/23 07:56:35;;;;;;;12.43;8.60;;;14.60;99.90;;;;;;5094701;28;20192;-60
2022/04/23 07:59:02;;;;;;;10.90;9.23;;;14.50;99.90;;;;;;5094389;28;20537;-61
2022/04/23 08:01:27;;;;;;;11.23;8.63;;;14.60;99.90;;;;;;5094530;28;20170;-61
2022/04/23 08:03:53;;;;;;;10.68;8.77;;;14.80;99.90;;;;;;5093080;28;20247;-60
2022/04/23 08:06:19;;;;;;;11.38;8.48;;;14.90;99.90;;;;;;5074803;28;20163;-60
2022/04/23 08:08:45;;;;;;;12.05;8.93;;;15.10;99.90;;;;;;5094318;28;20178;-60
2022/04/23 08:11:11;;;;;;;12.40;8.85;;;15.10;99.90;;;;;;5094558;28;20533;-61
2022/04/23 08:13:37;;;;;;;10.90;8.27;;;15.30;99.90;;;;;;5094460;28;20629;-61
2022/04/23 08:16:03;;;;;;;12.63;8.95;;;15.40;99.90;;;;;;5094639;28;20212;-60
2022/04/23 08:18:29;;;;;;;11.38;9.10;;;15.40;99.90;;;;;;5094617;28;20185;-60
2022/04/23 08:20:55;;;;;;;11.70;8.32;;;15.60;99.90;;;;;;5094377;28;20204;-61
2022/04/23 08:23:21;;;;;;;12.93;8.70;;;15.80;99.90;;;;;;5094264;28;20675;-61
2022/04/23 08:25:47;;;;;;;10.93;9.10;;;15.70;99.90;;;;;;5094294;28;20185;-61
2022/04/23 08:30:58;;;;;;;11.70;9.02;;;15.70;99.90;;;;;;5094168;28;20200;-61
2022/04/23 08:33:57;;;;;;;12.13;9.10;;;15.70;99.90;;;;;;5094093;28;20170;-61
2022/04/23 08:36:09;;;;;;;11.32;8.85;;;15.70;99.90;;;;;;5093818;28;20186;-61
2022/04/23 08:38:35;;;;;;;12.27;8.73;;;16.00;99.90;;;;;;5075886;28;20178;-61
2022/04/23 08:41:04;;;;;;;12.57;9.18;;;16.10;99.90;;;;;;5093931;28;20182;-61
2022/04/23 08:43:29;;;;;;;12.45;9.43;;;16.20;99.90;;;;;;5094328;28;20222;-61
2022/04/23 08:45:56;;;;;;;10.60;8.95;;;16.20;99.90;;;;;;5075611;28;20269;-61
2022/04/23 08:48:26;;;;;;;12.90;8.55;;;16.10;99.90;;;;;;5093786;28;20216;-61
2022/04/23 08:50:59;;;;;;;13.23;9.93;;;16.20;99.90;;;;;;5093483;28;20647;-61
2022/04/23 08:53:27;;;;;;;11.88;8.98;;;16.40;99.90;;;;;;5093691;28;20272;-61
2022/04/23 08:55:53;;;;;;;12.45;9.15;;;16.70;99.90;;;;;;5076084;28;20174;-61
2022/04/23 08:58:19;;;;;;;13.07;9.65;;;16.80;99.90;;;;;;5093746;28;20231;-61
2022/04/23 09:00:45;;;;;;;13.80;9.35;;;16.70;99.90;;;;;;5093856;28;20188;-61
2022/04/23 09:03:15;;;;;;;12.35;9.95;;;16.80;99.90;;;;;;5093350;28;20173;-61
2022/04/23 09:05:43;;;;;;;11.82;9.40;;;16.80;99.90;;;;;;5093581;28;20166;-61
2022/04/23 09:08:08;;;;;;;11.68;9.05;;;16.60;99.90;;;;;;5093766;28;20599;-61
2022/04/23 09:10:47;;;;;;;11.63;9.02;;;16.70;99.90;;;;;;5093679;28;20174;-61
2022/04/23 09:13:25;;;;;;;10.15;8.43;;;16.70;99.90;;;;;;5093576;28;20170;-61
2022/04/23 09:24:18;;;;;;;9.60;8.60;;;16.90;99.90;;;;;;5078447;28;20536;-61
2022/04/23 09:27:03;;;;;;;10.77;8.63;;;17.00;99.90;;;;;;5093063;28;20209;-61
2022/04/23 09:29:30;;;;;;;10.82;8.30;;;17.10;99.90;;;;;;5093352;28;20188;-61
2022/04/23 09:32:14;;;;;;;11.85;8.40;;;17.00;99.90;;;;;;5093101;28;20651;-61
2022/04/23 09:34:41;;;;;;;10.27;7.72;;;17.20;99.90;;;;;;5093591;28;20303;-60
2022/04/23 09:37:08;;;;;;;10.82;8.32;;;17.10;99.90;;;;;;5093095;28;20182;-61
2022/04/23 09:39:36;;;;;;;10.43;7.90;;;17.30;99.90;;;;;;5092518;28;20273;-61
2022/04/23 09:42:31;;;;;;;12.20;9.05;;;17.50;99.90;;;;;;5093161;28;20170;-61
2022/04/23 09:44:56;;;;;;;9.77;7.47;;;17.70;99.90;;;;;;5071657;28;20177;-61
2022/04/23 09:47:30;;;;;;;9.15;7.80;;;17.80;99.90;;;;;;5093016;28;20205;-60
2022/04/23 09:49:56;;;;;;;11.27;8.32;;;17.60;99.90;;;;;;5093286;28;20197;-61
2022/04/23 09:52:30;;;;;;;10.40;7.40;;;17.60;99.90;;;;;;5093125;28;20202;-60
2022/04/23 09:54:56;;;;;;;10.13;7.20;;;17.70;99.90;;;;;;5092978;28;20173;-61
2022/04/23 09:57:23;;;;;;;11.75;8.57;;;18.00;99.90;;;;;;5093340;28;20185;-61
2022/04/23 09:59:52;;;;;;;9.23;7.80;;;17.70;99.90;;;;;;5093005;28;20171;-62
2022/04/23 10:02:21;;;;;;;9.73;7.70;;;17.80;99.90;;;;;;5093154;28;20178;-61
2022/04/23 10:04:47;;;;;;;9.57;7.78;;;17.70;99.90;;;;;;5096015;28;20194;-62
2022/04/23 10:07:17;;;;;;;11.57;7.85;;;17.80;99.90;;;;;;5096268;28;20202;-61
2022/04/23 10:09:45;;;;;;;9.73;8.00;;;17.80;99.90;;;;;;5097025;28;20690;-61
2022/04/23 10:12:16;;;;;;;9.10;7.32;;;18.00;99.90;;;;;;5078731;28;20170;-61
2022/04/23 10:14:46;;;;;;;10.95;7.78;;;18.00;99.90;;;;;;5096748;28;20652;-62
2022/04/23 10:17:17;;;;;;;9.93;7.65;;;17.80;99.70;;;;;;5096906;28;20708;-62
2022/04/23 10:19:43;;;;;;;8.98;7.38;;;18.20;99.90;;;;;;5096764;28;20178;-62
2022/04/23 10:22:19;;;;;;;8.55;7.15;;;18.20;99.30;;;;;;5096653;28;20170;-62
2022/04/23 10:25:24;;;;;;;10.07;7.43;;;18.00;99.90;;;;;;5096487;28;20628;-62
2022/04/23 10:27:54;;;;;;;9.88;7.47;;;18.00;99.90;;;;;;5096646;28;20201;-61
2022/04/23 10:30:19;;;;;;;10.90;6.80;;;18.20;99.90;;;;;;5096351;28;20590;-62
2022/04/23 10:32:45;;;;;;;9.38;7.00;;;18.50;99.90;;;;;;5096850;28;20170;-62
2022/04/23 10:35:19;;;;;;;11.32;7.10;;;18.60;99.70;;;;;;5096360;28;20218;-61
2022/04/23 10:37:49;;;;;;;9.02;6.07;;;18.50;99.30;;;;;;5096230;28;20632;-61
2022/04/23 10:40:20;;;;;;;7.65;6.35;;;18.30;99.40;;;;;;5096333;28;20178;-61
2022/04/23 10:43:04;;;;;;;9.63;7.63;;;18.40;99.70;;;;;;5096267;28;20186;-61
2022/04/23 10:45:37;;;;;;;8.32;6.35;;;18.60;99.40;;;;;;5096196;28;20174;-61
2022/04/23 10:48:24;;;;;;;8.32;6.72;;;18.70;99.90;;;;;;5077789;28;20205;-61
2022/04/23 10:51:05;;;;;;;8.23;6.43;;;18.50;98.80;;;;;;5096201;28;20170;-62
2022/04/23 10:53:37;;;;;;;8.73;6.13;;;18.50;99.00;;;;;;5096180;28;20223;-61
2022/04/23 10:56:10;;;;;;;8.10;6.72;;;18.40;99.10;;;;;;5096105;28;20209;-61
2022/04/23 10:58:40;;;;;;;7.88;6.60;;;18.40;99.20;;;;;;5096157;28;20201;-61
2022/04/23 11:01:29;;;;;;;9.05;7.18;;;18.40;98.70;;;;;;5095942;28;20220;-61
2022/04/23 11:03:56;;;;;;;8.60;6.40;;;18.40;99.00;;;;;;5095835;28;20243;-61
2022/04/23 11:12:34;;;;;;;9.00;6.60;;;18.80;99.80;;;;;;5095851;28;20174;-63
2022/04/23 11:15:01;;;;;;;7.22;6.10;;;18.80;99.30;;;;;;5095449;28;20198;-61
2022/04/23 11:17:32;;;;;;;8.40;6.40;;;18.80;98.50;;;;;;5095670;28;20178;-62
2022/04/23 11:19:59;;;;;;;8.05;6.38;;;18.70;98.90;;;;;;5095608;28;20266;-60
2022/04/23 11:22:26;;;;;;;7.25;5.72;;;18.80;99.30;;;;;;5095481;28;20189;-62
2022/04/23 11:24:53;;;;;;;9.18;6.60;;;18.80;98.60;;;;;;5095481;28;20644;-60
2022/04/23 11:27:36;;;;;;;7.45;5.80;;;18.90;98.80;;;;;;5077186;28;20563;-60
2022/04/23 11:30:03;;;;;;;8.65;6.93;;;18.90;98.90;;;;;;5095497;28;20180;-61
2022/04/23 11:32:30;;;;;;;7.97;6.13;;;18.90;98.10;;;;;;5095104;28;20178;-60
2022/04/23 11:34:57;;;;;;;8.35;6.65;;;19.00;98.50;;;;;;5095407;28;20166;-61
2022/04/23 11:37:33;;;;;;;8.63;6.35;;;19.10;97.90;;;;;;5095206;28;20278;-61
2022/04/23 11:40:13;;;;;;;7.70;6.32;;;19.10;98.20;;;;;;5095132;28;20195;-61
2022/04/23 11:42:41;;;;;;;6.55;5.22;;;18.90;98.00;;;;;;5095228;28;20184;-61
2022/04/23 11:45:09;;;;;;;6.53;5.57;;;18.70;98.50;;;;;;5095200;28;20652;-60
2022/04/23 11:47:35;;;;;;;8.43;5.75;;;18.50;98.80;;;;;;5095264;28;20286;-61
2022/04/23 11:50:28;;;;;;;8.85;6.00;;;18.50;98.60;;;;;;5095135;28;20209;-62
2022/04/23 11:53:03;;;;;;;6.97;6.00;;;18.70;98.70;;;;;;5090875;28;20197;-60
2022/04/23 11:55:30;;;;;;;8.70;6.25;;;18.90;98.40;;;;;;5094820;28;20682;-60
2022/04/23 11:57:58;;;;;;;9.23;6.03;;;19.10;97.80;;;;;;5094829;28;20181;-61
2022/04/23 12:00:25;;;;;;;7.10;5.80;;;19.50;97.90;;;;;;5094704;28;20232;-61
2022/04/23 12:02:52;;;;;;;7.07;5.13;;;19.60;97.90;;;;;;5094797;28;20637;-61
2022/04/23 12:05:34;;;;;;;5.97;5.40;;;19.90;97.40;;;;;;5094511;28;20200;-61
2022/04/23 12:08:01;;;;;;;8.07;6.13;;;19.90;96.80;;;;;;5094749;28;20206;-61
2022/04/23 12:10:28;;;;;;;6.88;5.50;;;19.40;96.60;;;;;;5094566;28;20233;-60
2022/04/23 12:13:05;;;;;;;6.30;5.47;;;19.20;97.20;;;;;;5094442;28;20178;-60
2022/04/23 12:15:31;;;;;;;6.57;5.10;;;19.20;98.10;;;;;;5094341;28;20174;-62
2022/04/23 12:17:57;;;;;;;7.45;5.38;;;19.00;97.80;;;;;;5094572;28;20643;-62
2022/04/23 12:20:25;;;;;;;6.05;5.32;;;18.80;98.30;;;;;;5094298;28;20173;-62
2022/04/23 12:23:00;;;;;;;6.47;5.00;;;18.60;97.60;;;;;;5094377;28;20202;-60
2022/04/23 12:25:30;;;;;;;6.10;5.38;;;18.40;98.90;;;;;;5093839;28;20172;-60
2022/04/23 12:42:12;;;;;;;6.65;4.55;;;19.40;98.70;;;;;;5094352;28;20185;-62
2022/04/23 12:44:43;;;;;;;5.28;4.30;;;19.40;96.70;;;;;;5075605;28;20536;-60
2022/04/23 12:47:15;;;;;;;5.70;4.85;;;19.30;97.60;;;;;;5093719;28;20214;-60
2022/04/23 12:49:47;;;;;;;5.65;4.80;;;19.10;97.20;;;;;;5093927;28;20658;-60
2022/04/23 12:52:20;;;;;;;6.47;5.07;;;19.20;97.80;;;;;;5093836;28;20172;-60
2022/04/23 12:55:18;;;;;;;7.65;5.32;;;19.50;96.70;;;;;;5075658;28;20510;-60
2022/04/23 12:57:48;;;;;;;6.88;5.40;;;19.50;96.70;;;;;;5093893;28;20170;-60
2022/04/23 13:00:20;;;;;;;6.13;4.78;;;19.50;96.80;;;;;;5093787;28;20174;-62
2022/04/23 13:02:53;;;;;;;7.47;5.72;;;19.40;96.20;;;;;;5093824;28;20185;-60
2022/04/23 13:05:18;;;;;;;6.45;5.55;;;19.50;95.90;;;;;;5093416;28;20185;-60
2022/04/23 13:10:28;;;;;;;5.25;4.60;;;19.70;96.80;;;;;;5093860;28;20316;-60
2022/04/23 13:12:54;;;;;;;7.57;5.50;;;19.50;97.10;;;;;;5093700;28;20197;-60
2022/04/23 13:15:20;;;;;;;6.30;5.18;;;19.20;96.10;;;;;;5093420;28;20178;-60
2022/04/23 13:17:47;;;;;;;6.35;4.68;;;19.20;97.20;;;;;;5093393;28;20603;-60
2022/04/23 13:20:14;;;;;;;7.07;5.82;;;19.30;97.70;;;;;;5093216;28;20262;-60
2022/04/23 13:22:43;;;;;;;7.35;5.05;;;19.40;96.70;;;;;;5093401;28;20597;-60
2022/04/23 13:25:10;;;;;;;6.93;5.20;;;19.60;97.80;;;;;;5093438;28;20189;-60
2022/04/23 13:27:36;;;;;;;6.32;5.05;;;19.70;96.20;;;;;;5093151;28;20205;-61